sensor_id;sensor_type;location;lat;lon;timestamp;pressure;altitude;pressure_sealevel;temperature;humidity
25350;BME280;13302;48.796;11.978;2023-11-19T00:02:29;96934.19;;;7.25;42.82
25350;BME280;13302;48.796;11.978;2023-11-19T00:05:16;96932.56;;;7.24;42.76
25350;BME280;13302;48.796;11.978;2023-11-19T00:08:03;96923.81;;;7.22;42.67
25350;BME280;13302;48.796;11.978;2023-11-19T00:10:50;96910.44;;;7.21;42.81
25350;BME280;13302;48.796;11.978;2023-11-19T00:13:38;96907.31;;;7.22;42.80
25350;BME280;13302;48.796;11.978;2023-11-19T00:16:25;96897.81;;;7.20;42.57
25350;BME280;13302;48.796;11.978;2023-11-19T00:19:12;96895.06;;;7.20;42.97
25350;BME280;13302;48.796;11.978;2023-11-19T00:21:59;96892.63;;;7.18;42.67
25350;BME280;13302;48.796;11.978;2023-11-19T00:24:49;96885.84;;;7.16;42.98
25350;BME280;13302;48.796;11.978;2023-11-19T00:27:37;96886.97;;;7.15;42.69
25350;BME280;13302;48.796;11.978;2023-11-19T00:30:27;96884.91;;;7.12;42.88
25350;BME280;13302;48.796;11.978;2023-11-19T00:33:14;96875.84;;;7.11;42.89
25350;BME280;13302;48.796;11.978;2023-11-19T00:36:01;96873.91;;;7.12;42.92
25350;BME280;13302;48.796;11.978;2023-11-19T00:38:50;96862.41;;;7.10;43.00
25350;BME280;13302;48.796;11.978;2023-11-19T00:41:37;96864.03;;;7.11;43.16
25350;BME280;13302;48.796;11.978;2023-11-19T00:44:24;96858.53;;;7.11;43.16
25350;BME280;13302;48.796;11.978;2023-11-19T00:47:12;96854.66;;;7.12;43.02
25350;BME280;13302;48.796;11.978;2023-11-19T00:49:59;96851.91;;;7.12;43.01
25350;BME280;13302;48.796;11.978;2023-11-19T00:52:46;96860.63;;;7.14;42.96
25350;BME280;13302;48.796;11.978;2023-11-19T00:55:34;96855.13;;;7.14;43.09
25350;BME280;13302;48.796;11.978;2023-11-19T00:58:32;96852.88;;;7.16;43.15
25350;BME280;13302;48.796;11.978;2023-11-19T01:01:19;96853.66;;;7.16;43.04
25350;BME280;13302;48.796;11.978;2023-11-19T01:04:06;96847.00;;;7.17;43.35
25350;BME280;13302;48.796;11.978;2023-11-19T01:06:54;96843.94;;;7.19;42.93
25350;BME280;13302;48.796;11.978;2023-11-19T01:09:42;96834.88;;;7.18;43.23
25350;BME280;13302;48.796;11.978;2023-11-19T01:12:29;96834.88;;;7.18;43.13
25350;BME280;13302;48.796;11.978;2023-11-19T01:15:18;96838.44;;;7.19;42.88
25350;BME280;13302;48.796;11.978;2023-11-19T01:18:07;96826.63;;;7.18;43.00
25350;BME280;13302;48.796;11.978;2023-11-19T01:20:56;96830.19;;;7.19;43.19
25350;BME280;13302;48.796;11.978;2023-11-19T01:23:44;96836.19;;;7.21;42.91
25350;BME280;13302;48.796;11.978;2023-11-19T01:26:32;96819.22;;;7.19;43.30
25350;BME280;13302;48.796;11.978;2023-11-19T01:29:19;96814.50;;;7.19;43.29
25350;BME280;13302;48.796;11.978;2023-11-19T01:32:07;96822.75;;;7.19;43.39
25350;BME280;13302;48.796;11.978;2023-11-19T01:34:54;96821.94;;;7.19;43.44
25350;BME280;13302;48.796;11.978;2023-11-19T01:37:41;96821.16;;;7.18;43.10
25350;BME280;13302;48.796;11.978;2023-11-19T01:40:28;96812.09;;;7.18;43.09
25350;BME280;13302;48.796;11.978;2023-11-19T01:43:40;96815.19;;;7.16;43.58
25350;BME280;13302;48.796;11.978;2023-11-19T01:46:30;96800.28;;;7.17;43.18
25350;BME280;13302;48.796;11.978;2023-11-19T01:49:19;96800.28;;;7.17;43.37
25350;BME280;13302;48.796;11.978;2023-11-19T01:52:07;96796.41;;;7.18;43.55
25350;BME280;13302;48.796;11.978;2023-11-19T01:54:55;96790.59;;;7.20;43.34
25350;BME280;13302;48.796;11.978;2023-11-19T01:57:42;96787.47;;;7.21;43.59
25350;BME280;13302;48.796;11.978;2023-11-19T02:00:30;96785.53;;;7.22;43.41
25350;BME280;13302;48.796;11.978;2023-11-19T02:03:19;96778.09;;;7.22;43.22
25350;BME280;13302;48.796;11.978;2023-11-19T02:06:08;96776.97;;;7.23;43.37
25350;BME280;13302;48.796;11.978;2023-11-19T02:08:58;96776.97;;;7.23;43.38
25350;BME280;13302;48.796;11.978;2023-11-19T02:11:46;96764.84;;;7.24;43.61
25350;BME280;13302;48.796;11.978;2023-11-19T02:14:38;96772.75;;;7.26;43.54
25350;BME280;13302;48.796;11.978;2023-11-19T02:17:31;96767.25;;;7.26;43.50
25350;BME280;13302;48.796;11.978;2023-11-19T02:20:18;96768.53;;;7.28;43.45
25350;BME280;13302;48.796;11.978;2023-11-19T02:23:07;96762.69;;;7.30;43.54
25350;BME280;13302;48.796;11.978;2023-11-19T02:28:47;96747.81;;;7.31;43.57
25350;BME280;13302;48.796;11.978;2023-11-19T02:31:35;96743.63;;;7.33;43.32
25350;BME280;13302;48.796;11.978;2023-11-19T02:34:23;96734.19;;;7.34;43.56
25350;BME280;13302;48.796;11.978;2023-11-19T02:37:10;96726.47;;;7.36;43.65
25350;BME280;13302;48.796;11.978;2023-11-19T02:39:57;96732.44;;;7.38;43.66
25350;BME280;13302;48.796;11.978;2023-11-19T02:42:51;96722.72;;;7.41;43.32
25350;BME280;13302;48.796;11.978;2023-11-19T02:45:38;96715.28;;;7.42;43.67
25350;BME280;13302;48.796;11.978;2023-11-19T02:48:25;96715.75;;;7.44;43.46
25350;BME280;13302;48.796;11.978;2023-11-19T02:51:12;96707.97;;;7.46;43.57
25350;BME280;13302;48.796;11.978;2023-11-19T02:53:59;96711.50;;;7.46;43.54
25350;BME280;13302;48.796;11.978;2023-11-19T02:56:46;96709.56;;;7.47;43.59
25350;BME280;13302;48.796;11.978;2023-11-19T02:59:42;96709.25;;;7.48;43.68
25350;BME280;13302;48.796;11.978;2023-11-19T03:02:30;96708.91;;;7.50;43.51
25350;BME280;13302;48.796;11.978;2023-11-19T03:05:21;96705.00;;;7.51;43.62
25350;BME280;13302;48.796;11.978;2023-11-19T03:08:08;96694.47;;;7.53;43.56
25350;BME280;13302;48.796;11.978;2023-11-19T03:10:55;96690.25;;;7.55;43.46
25350;BME280;13302;48.796;11.978;2023-11-19T03:13:43;96691.88;;;7.56;43.71
25350;BME280;13302;48.796;11.978;2023-11-19T03:16:30;96693.47;;;7.57;43.41
25350;BME280;13302;48.796;11.978;2023-11-19T03:19:17;96692.00;;;7.60;43.46
25350;BME280;13302;48.796;11.978;2023-11-19T03:22:07;96682.94;;;7.59;43.38
25350;BME280;13302;48.796;11.978;2023-11-19T03:24:54;96691.66;;;7.61;43.41
25350;BME280;13302;48.796;11.978;2023-11-19T03:27:41;96685.34;;;7.61;43.54
25350;BME280;13302;48.796;11.978;2023-11-19T03:30:30;96680.66;;;7.61;43.44
25350;BME280;13302;48.796;11.978;2023-11-19T03:33:20;96681.47;;;7.62;43.39
25350;BME280;13302;48.796;11.978;2023-11-19T03:36:07;96678.38;;;7.63;43.58
25350;BME280;13302;48.796;11.978;2023-11-19T03:38:56;96678.72;;;7.62;43.56
25350;BME280;13302;48.796;11.978;2023-11-19T03:41:45;96686.16;;;7.61;43.56
25350;BME280;13302;48.796;11.978;2023-11-19T03:44:34;96692.13;;;7.63;43.53
25350;BME280;13302;48.796;11.978;2023-11-19T03:47:21;96680.31;;;7.63;43.48
25350;BME280;13302;48.796;11.978;2023-11-19T03:50:08;96679.19;;;7.64;43.44
25350;BME280;13302;48.796;11.978;2023-11-19T03:52:55;96679.19;;;7.64;43.80
25350;BME280;13302;48.796;11.978;2023-11-19T03:55:42;96685.50;;;7.64;43.59
25350;BME280;13302;48.796;11.978;2023-11-19T03:58:30;96680.47;;;7.66;43.72
25350;BME280;13302;48.796;11.978;2023-11-19T04:01:17;96679.66;;;7.66;43.62
25350;BME280;13302;48.796;11.978;2023-11-19T04:04:05;96684.00;;;7.67;43.87
25350;BME280;13302;48.796;11.978;2023-11-19T04:06:53;96674.16;;;7.66;43.80
25350;BME280;13302;48.796;11.978;2023-11-19T04:09:40;96681.25;;;7.67;43.87
25350;BME280;13302;48.796;11.978;2023-11-19T04:12:27;96687.56;;;7.67;43.42
25350;BME280;13302;48.796;11.978;2023-11-19T04:15:15;96690.31;;;7.67;43.54
25350;BME280;13302;48.796;11.978;2023-11-19T04:18:02;96684.47;;;7.69;43.50
25350;BME280;13302;48.796;11.978;2023-11-19T04:20:49;96678.97;;;7.69;43.56
25350;BME280;13302;48.796;11.978;2023-11-19T04:23:37;96681.72;;;7.69;43.33
25350;BME280;13302;48.796;11.978;2023-11-19T04:26:24;96671.53;;;7.69;43.45
25350;BME280;13302;48.796;11.978;2023-11-19T04:29:15;96677.38;;;7.68;43.58
25350;BME280;13302;48.796;11.978;2023-11-19T04:32:06;96679.78;;;7.69;43.73
25350;BME280;13302;48.796;11.978;2023-11-19T04:34:54;96676.22;;;7.69;43.80
25350;BME280;13302;48.796;11.978;2023-11-19T04:37:41;96674.75;;;7.71;43.74
25350;BME280;13302;48.796;11.978;2023-11-19T04:40:29;96660.16;;;7.71;43.75
25350;BME280;13302;48.796;11.978;2023-11-19T04:43:16;96661.47;;;7.73;43.75
25350;BME280;13302;48.796;11.978;2023-11-19T04:46:04;96644.47;;;7.71;43.83
25350;BME280;13302;48.796;11.978;2023-11-19T04:48:51;96641.72;;;7.71;43.85
25350;BME280;13302;48.796;11.978;2023-11-19T04:51:42;96637.03;;;7.72;43.85
25350;BME280;13302;48.796;11.978;2023-11-19T04:54:30;96627.97;;;7.71;43.76
25350;BME280;13302;48.796;11.978;2023-11-19T04:57:17;96603.19;;;7.71;43.55
25350;BME280;13302;48.796;11.978;2023-11-19T05:00:05;96594.94;;;7.71;43.75
25350;BME280;13302;48.796;11.978;2023-11-19T05:03:03;96606.63;;;7.68;43.51
25350;BME280;13302;48.796;11.978;2023-11-19T05:05:50;96612.47;;;7.67;43.40
25350;BME280;13302;48.796;11.978;2023-11-19T05:08:37;96607.31;;;7.65;43.54
25350;BME280;13302;48.796;11.978;2023-11-19T05:11:24;96613.50;;;7.62;43.68
25350;BME280;13302;48.796;11.978;2023-11-19T05:14:11;96609.13;;;7.61;43.80
25350;BME280;13302;48.796;11.978;2023-11-19T05:16:58;96611.09;;;7.61;43.69
25350;BME280;13302;48.796;11.978;2023-11-19T05:19:46;96616.59;;;7.61;43.88
25350;BME280;13302;48.796;11.978;2023-11-19T05:22:34;96621.28;;;7.60;43.90
25350;BME280;13302;48.796;11.978;2023-11-19T05:25:21;96622.91;;;7.61;43.82
25350;BME280;13302;48.796;11.978;2023-11-19T05:28:08;96623.69;;;7.62;44.22
25350;BME280;13302;48.796;11.978;2023-11-19T05:30:55;96619.78;;;7.63;44.25
25350;BME280;13302;48.796;11.978;2023-11-19T05:33:43;96617.50;;;7.65;44.06
25350;BME280;13302;48.796;11.978;2023-11-19T05:36:31;96619.13;;;7.66;44.22
25350;BME280;13302;48.796;11.978;2023-11-19T05:39:18;96642.41;;;7.68;44.38
25350;BME280;13302;48.796;11.978;2023-11-19T05:42:08;96631.53;;;7.72;44.25
25350;BME280;13302;48.796;11.978;2023-11-19T05:44:56;96632.00;;;7.74;44.23
25350;BME280;13302;48.796;11.978;2023-11-19T05:47:44;96634.41;;;7.75;44.24
25350;BME280;13302;48.796;11.978;2023-11-19T05:50:31;96642.94;;;7.82;44.24
25350;BME280;13302;48.796;11.978;2023-11-19T05:53:18;96637.88;;;7.84;43.95
25350;BME280;13302;48.796;11.978;2023-11-19T05:56:06;96637.56;;;7.86;44.21
25350;BME280;13302;48.796;11.978;2023-11-19T05:58:56;96621.84;;;7.87;44.41
25350;BME280;13302;48.796;11.978;2023-11-19T06:01:43;96616.34;;;7.87;44.45
25350;BME280;13302;48.796;11.978;2023-11-19T06:04:31;96604.66;;;7.90;44.56
25350;BME280;13302;48.796;11.978;2023-11-19T06:07:18;96596.38;;;7.90;44.39
25350;BME280;13302;48.796;11.978;2023-11-19T06:10:05;96599.94;;;7.90;44.54
25350;BME280;13302;48.796;11.978;2023-11-19T06:12:53;96596.84;;;7.92;44.39
25350;BME280;13302;48.796;11.978;2023-11-19T06:15:43;96589.19;;;7.97;44.37
25350;BME280;13302;48.796;11.978;2023-11-19T06:18:30;96574.72;;;8.00;44.41
25350;BME280;13302;48.796;11.978;2023-11-19T06:21:18;96574.28;;;7.98;45.05
25350;BME280;13302;48.796;11.978;2023-11-19T06:24:05;96571.53;;;7.98;44.83
25350;BME280;13302;48.796;11.978;2023-11-19T06:26:52;96575.53;;;8.01;45.15
25350;BME280;13302;48.796;11.978;2023-11-19T06:29:40;96592.97;;;8.05;45.36
25350;BME280;13302;48.796;11.978;2023-11-19T06:32:27;96599.28;;;8.05;45.26
25350;BME280;13302;48.796;11.978;2023-11-19T06:35:16;96600.34;;;8.13;45.36
25350;BME280;13302;48.796;11.978;2023-11-19T06:38:04;96603.78;;;8.10;45.26
25350;BME280;13302;48.796;11.978;2023-11-19T06:40:54;96606.19;;;8.11;45.63
25350;BME280;13302;48.796;11.978;2023-11-19T06:43:41;96594.81;;;8.13;45.57
25350;BME280;13302;48.796;11.978;2023-11-19T06:46:29;96584.72;;;8.17;45.40
25350;BME280;13302;48.796;11.978;2023-11-19T06:49:16;96595.06;;;8.20;45.88
25350;BME280;13302;48.796;11.978;2023-11-19T06:52:04;96597.59;;;8.25;45.74
25350;BME280;13302;48.796;11.978;2023-11-19T06:54:51;96601.16;;;8.25;45.88
25350;BME280;13302;48.796;11.978;2023-11-19T06:57:38;96605.66;;;8.30;45.72
25350;BME280;13302;48.796;11.978;2023-11-19T07:00:25;96603.69;;;8.30;45.67
25350;BME280;13302;48.796;11.978;2023-11-19T07:03:12;96595.56;;;8.34;45.97
25350;BME280;13302;48.796;11.978;2023-11-19T07:06:00;96592.09;;;8.37;45.55
25350;BME280;13302;48.796;11.978;2023-11-19T07:08:47;96598.09;;;8.39;45.66
25350;BME280;13302;48.796;11.978;2023-11-19T07:11:39;96601.97;;;8.38;46.07
25350;BME280;13302;48.796;11.978;2023-11-19T07:14:26;96593.38;;;8.40;46.01
25350;BME280;13302;48.796;11.978;2023-11-19T07:17:13;96588.00;;;8.43;45.77
25350;BME280;13302;48.796;11.978;2023-11-19T07:20:02;96592.81;;;8.46;45.71
25350;BME280;13302;48.796;11.978;2023-11-19T07:22:51;96589.72;;;8.48;45.78
25350;BME280;13302;48.796;11.978;2023-11-19T07:25:44;96606.38;;;8.51;45.34
25350;BME280;13302;48.796;11.978;2023-11-19T07:28:33;96605.00;;;8.57;45.37
25350;BME280;13302;48.796;11.978;2023-11-19T07:31:21;96613.03;;;8.62;45.06
25350;BME280;13302;48.796;11.978;2023-11-19T07:34:08;96610.16;;;8.59;45.00
25350;BME280;13302;48.796;11.978;2023-11-19T07:36:56;96604.22;;;8.57;45.23
25350;BME280;13302;48.796;11.978;2023-11-19T07:39:49;96614.06;;;8.58;45.04
25350;BME280;13302;48.796;11.978;2023-11-19T07:42:36;96617.63;;;8.58;45.27
25350;BME280;13302;48.796;11.978;2023-11-19T07:45:24;96612.81;;;8.55;45.27
25350;BME280;13302;48.796;11.978;2023-11-19T07:48:11;96607.31;;;8.55;45.39
25350;BME280;13302;48.796;11.978;2023-11-19T07:51:00;96605.34;;;8.56;45.49
25350;BME280;13302;48.796;11.978;2023-11-19T07:53:47;96613.16;;;8.54;45.46
25350;BME280;13302;48.796;11.978;2023-11-19T07:56:34;96615.56;;;8.55;45.54
25350;BME280;13302;48.796;11.978;2023-11-19T07:59:22;96615.09;;;8.53;45.85
25350;BME280;13302;48.796;11.978;2023-11-19T08:02:09;96616.00;;;8.57;46.07
25350;BME280;13302;48.796;11.978;2023-11-19T08:04:56;96615.69;;;8.59;46.39
25350;BME280;13302;48.796;11.978;2023-11-19T08:07:44;96608.66;;;8.61;46.70
25350;BME280;13302;48.796;11.978;2023-11-19T08:10:31;96609.94;;;8.64;46.87
25350;BME280;13302;48.796;11.978;2023-11-19T08:13:20;96607.31;;;8.67;46.93
25350;BME280;13302;48.796;11.978;2023-11-19T08:16:07;96610.97;;;8.71;46.82
25350;BME280;13302;48.796;11.978;2023-11-19T08:18:54;96614.19;;;8.73;47.00
25350;BME280;13302;48.796;11.978;2023-11-19T08:21:41;96609.59;;;8.77;47.16
25350;BME280;13302;48.796;11.978;2023-11-19T08:24:29;96612.47;;;8.81;47.28
25350;BME280;13302;48.796;11.978;2023-11-19T08:27:16;96622.34;;;8.82;47.10
25350;BME280;13302;48.796;11.978;2023-11-19T08:30:04;96621.66;;;8.85;47.23
25350;BME280;13302;48.796;11.978;2023-11-19T08:32:52;96618.53;;;8.87;47.49
25350;BME280;13302;48.796;11.978;2023-11-19T08:35:39;96610.75;;;8.89;47.63
25350;BME280;13302;48.796;11.978;2023-11-19T08:38:26;96605.22;;;8.89;48.56
25350;BME280;13302;48.796;11.978;2023-11-19T08:41:17;96617.16;;;8.93;47.67
25350;BME280;13302;48.796;11.978;2023-11-19T08:44:05;96619.56;;;8.94;48.21
25350;BME280;13302;48.796;11.978;2023-11-19T08:46:52;96617.28;;;8.96;47.78
25350;BME280;13302;48.796;11.978;2023-11-19T08:49:39;96621.28;;;8.99;48.12
25350;BME280;13302;48.796;11.978;2023-11-19T08:52:26;96625.31;;;9.01;48.00
25350;BME280;13302;48.796;11.978;2023-11-19T08:55:13;96607.59;;;9.02;48.07
25350;BME280;13302;48.796;11.978;2023-11-19T08:58:00;96614.41;;;9.05;48.03
25350;BME280;13302;48.796;11.978;2023-11-19T09:00:49;96611.28;;;9.06;48.31
25350;BME280;13302;48.796;11.978;2023-11-19T09:03:36;96622.44;;;9.10;48.59
25350;BME280;13302;48.796;11.978;2023-11-19T09:06:23;96626.44;;;9.12;48.57
25350;BME280;13302;48.796;11.978;2023-11-19T09:09:11;96630.81;;;9.13;48.34
25350;BME280;13302;48.796;11.978;2023-11-19T09:11:58;96619.88;;;9.17;48.61
25350;BME280;13302;48.796;11.978;2023-11-19T09:14:45;96624.25;;;9.18;48.76
25350;BME280;13302;48.796;11.978;2023-11-19T09:17:32;96621.50;;;9.18;49.24
25350;BME280;13302;48.796;11.978;2023-11-19T09:20:19;96622.41;;;9.22;48.99
25350;BME280;13302;48.796;11.978;2023-11-19T09:23:07;96616.53;;;9.23;49.06
25350;BME280;13302;48.796;11.978;2023-11-19T09:25:56;96616.53;;;9.23;49.36
25350;BME280;13302;48.796;11.978;2023-11-19T09:28:43;96624.91;;;9.27;49.31
25350;BME280;13302;48.796;11.978;2023-11-19T09:31:30;96621.81;;;9.29;49.79
25350;BME280;13302;48.796;11.978;2023-11-19T09:34:17;96619.88;;;9.29;49.65
25350;BME280;13302;48.796;11.978;2023-11-19T09:37:04;96599.41;;;9.30;49.85
25350;BME280;13302;48.796;11.978;2023-11-19T09:40:08;96612.16;;;9.35;49.63
25350;BME280;13302;48.796;11.978;2023-11-19T09:42:56;96607.88;;;9.37;49.61
25350;BME280;13302;48.796;11.978;2023-11-19T09:45:50;96610.31;;;9.39;50.52
25350;BME280;13302;48.796;11.978;2023-11-19T09:48:38;96603.84;;;9.47;49.95
25350;BME280;13302;48.796;11.978;2023-11-19T09:51:25;96622.13;;;9.51;50.12
25350;BME280;13302;48.796;11.978;2023-11-19T09:54:13;96626.91;;;9.54;50.05
25350;BME280;13302;48.796;11.978;2023-11-19T09:57:02;96620.25;;;9.55;50.21
25350;BME280;13302;48.796;11.978;2023-11-19T09:59:53;96619.22;;;9.60;50.24
25350;BME280;13302;48.796;11.978;2023-11-19T10:02:40;96620.03;;;9.60;50.59
25350;BME280;13302;48.796;11.978;2023-11-19T10:05:28;96624.16;;;9.66;50.27
25350;BME280;13302;48.796;11.978;2023-11-19T10:08:16;96602.88;;;9.67;50.78
25350;BME280;13302;48.796;11.978;2023-11-19T10:11:08;96605.97;;;9.65;50.90
25350;BME280;13302;48.796;11.978;2023-11-19T10:13:56;96600.56;;;9.69;50.90
25350;BME280;13302;48.796;11.978;2023-11-19T10:16:43;96597.09;;;9.72;50.90
25350;BME280;13302;48.796;11.978;2023-11-19T10:19:33;96596.75;;;9.74;50.70
25350;BME280;13302;48.796;11.978;2023-11-19T10:22:22;96612.50;;;9.73;51.12
25350;BME280;13302;48.796;11.978;2023-11-19T10:25:26;96597.53;;;9.74;51.53
25350;BME280;13302;48.796;11.978;2023-11-19T10:28:16;96594.44;;;9.76;51.23
25350;BME280;13302;48.796;11.978;2023-11-19T10:31:05;96590.16;;;9.78;51.08
25350;BME280;13302;48.796;11.978;2023-11-19T10:33:52;96576.47;;;9.82;51.33
25350;BME280;13302;48.796;11.978;2023-11-19T10:36:40;96583.25;;;9.84;51.30
25350;BME280;13302;48.796;11.978;2023-11-19T10:39:53;96593.81;;;9.82;52.50
25350;BME280;13302;48.796;11.978;2023-11-19T10:42:43;96576.53;;;9.85;51.66
25350;BME280;13302;48.796;11.978;2023-11-19T10:45:30;96580.91;;;9.86;51.32
25350;BME280;13302;48.796;11.978;2023-11-19T10:48:18;96571.59;;;9.91;51.07
25350;BME280;13302;48.796;11.978;2023-11-19T10:51:06;96581.91;;;9.94;51.25
25350;BME280;13302;48.796;11.978;2023-11-19T10:54:04;96572.81;;;9.93;51.74
25350;BME280;13302;48.796;11.978;2023-11-19T10:56:57;96562.59;;;9.94;51.62
25350;BME280;13302;48.796;11.978;2023-11-19T10:59:45;96578.09;;;9.98;51.59
25350;BME280;13302;48.796;11.978;2023-11-19T11:02:35;96588.34;;;9.98;51.64
25350;BME280;13302;48.796;11.978;2023-11-19T11:05:26;96568.41;;;10.04;51.35
25350;BME280;13302;48.796;11.978;2023-11-19T11:08:14;96566.88;;;10.07;51.71
25350;BME280;13302;48.796;11.978;2023-11-19T11:11:01;96574.09;;;10.11;51.59
25350;BME280;13302;48.796;11.978;2023-11-19T11:13:50;96566.72;;;10.16;51.72
25350;BME280;13302;48.796;11.978;2023-11-19T11:16:37;96575.34;;;10.14;51.82
25350;BME280;13302;48.796;11.978;2023-11-19T11:19:24;96578.09;;;10.14;51.91
25350;BME280;13302;48.796;11.978;2023-11-19T11:22:14;96574.91;;;10.12;52.21
25350;BME280;13302;48.796;11.978;2023-11-19T11:25:34;96580.06;;;10.13;53.46
25350;BME280;13302;48.796;11.978;2023-11-19T11:32:10;96570.13;;;10.25;53.20
25350;BME280;13302;48.796;11.978;2023-11-19T11:38:04;96567.59;;;10.35;52.52
25350;BME280;13302;48.796;11.978;2023-11-19T11:41:18;96572.50;;;10.42;53.36
25350;BME280;13302;48.796;11.978;2023-11-19T11:44:06;96559.47;;;10.42;52.54
25350;BME280;13302;48.796;11.978;2023-11-19T11:46:53;96554.84;;;10.46;52.45
25350;BME280;13302;48.796;11.978;2023-11-19T11:49:41;96550.94;;;10.47;52.84
25350;BME280;13302;48.796;11.978;2023-11-19T11:52:28;96555.47;;;10.55;52.65
25350;BME280;13302;48.796;11.978;2023-11-19T11:55:17;96556.75;;;10.58;52.32
25350;BME280;13302;48.796;11.978;2023-11-19T11:58:07;96554.31;;;10.56;52.29
25350;BME280;13302;48.796;11.978;2023-11-19T12:00:57;96551.66;;;10.60;52.08
25350;BME280;13302;48.796;11.978;2023-11-19T12:03:44;96550.13;;;10.63;52.39
25350;BME280;13302;48.796;11.978;2023-11-19T12:06:32;96540.34;;;10.65;52.33
25350;BME280;13302;48.796;11.978;2023-11-19T12:09:19;96547.97;;;10.72;52.10
25350;BME280;13302;48.796;11.978;2023-11-19T12:12:25;96536.31;;;10.78;52.45
25350;BME280;13302;48.796;11.978;2023-11-19T12:15:13;96541.84;;;10.78;52.63
25350;BME280;13302;48.796;11.978;2023-11-19T12:18:02;96543.41;;;10.79;52.50
25350;BME280;13302;48.796;11.978;2023-11-19T12:20:49;96539.16;;;10.82;52.73
25350;BME280;13302;48.796;11.978;2023-11-19T12:23:44;96542.88;;;10.89;53.07
25350;BME280;13302;48.796;11.978;2023-11-19T12:26:40;96539.75;;;10.91;52.57
25350;BME280;13302;48.796;11.978;2023-11-19T12:29:27;96533.50;;;10.94;52.52
25350;BME280;13302;48.796;11.978;2023-11-19T12:32:14;96534.81;;;11.00;52.15
25350;BME280;13302;48.796;11.978;2023-11-19T12:35:01;96540.06;;;11.05;52.51
25350;BME280;13302;48.796;11.978;2023-11-19T12:37:50;96521.50;;;11.05;52.39
25350;BME280;13302;48.796;11.978;2023-11-19T12:40:37;96515.63;;;11.07;52.23
25350;BME280;13302;48.796;11.978;2023-11-19T12:43:24;96521.16;;;11.07;52.67
25350;BME280;13302;48.796;11.978;2023-11-19T12:46:21;96512.84;;;11.07;52.65
25350;BME280;13302;48.796;11.978;2023-11-19T12:49:11;96510.16;;;11.11;52.43
25350;BME280;13302;48.796;11.978;2023-11-19T12:51:58;96509.78;;;11.12;52.00
25350;BME280;13302;48.796;11.978;2023-11-19T12:54:46;96501.66;;;11.19;52.03
25350;BME280;13302;48.796;11.978;2023-11-19T12:57:41;96498.00;;;11.15;51.98
25350;BME280;13302;48.796;11.978;2023-11-19T13:00:28;96505.13;;;11.16;51.74
25350;BME280;13302;48.796;11.978;2023-11-19T13:03:29;96499.22;;;11.18;51.99
25350;BME280;13302;48.796;11.978;2023-11-19T13:06:16;96496.03;;;11.16;51.78
25350;BME280;13302;48.796;11.978;2023-11-19T13:09:04;96502.34;;;11.16;51.89
25350;BME280;13302;48.796;11.978;2023-11-19T13:11:52;96496.09;;;11.19;51.68
25350;BME280;13302;48.796;11.978;2023-11-19T13:14:39;96496.03;;;11.16;51.96
25350;BME280;13302;48.796;11.978;2023-11-19T13:17:27;96494.03;;;11.16;51.53
25350;BME280;13302;48.796;11.978;2023-11-19T13:20:15;96494.44;;;11.15;51.64
25350;BME280;13302;48.796;11.978;2023-11-19T13:23:05;96491.66;;;11.15;51.58
25350;BME280;13302;48.796;11.978;2023-11-19T13:25:53;96484.88;;;11.12;51.81
25350;BME280;13302;48.796;11.978;2023-11-19T13:28:41;96491.22;;;11.13;51.55
25350;BME280;13302;48.796;11.978;2023-11-19T13:31:28;96494.44;;;11.15;51.68
25350;BME280;13302;48.796;11.978;2023-11-19T13:34:15;96497.53;;;11.13;51.79
25350;BME280;13302;48.796;11.978;2023-11-19T13:37:03;96485.31;;;11.14;51.45
25350;BME280;13302;48.796;11.978;2023-11-19T13:39:51;96482.28;;;11.19;51.67
25350;BME280;13302;48.796;11.978;2023-11-19T13:42:39;96471.91;;;11.16;51.25
25350;BME280;13302;48.796;11.978;2023-11-19T13:45:31;96469.16;;;11.16;51.64
25350;BME280;13302;48.796;11.978;2023-11-19T13:48:18;96467.56;;;11.15;51.50
25350;BME280;13302;48.796;11.978;2023-11-19T13:51:05;96468.38;;;11.16;51.31
25350;BME280;13302;48.796;11.978;2023-11-19T13:53:52;96473.81;;;11.12;51.72
25350;BME280;13302;48.796;11.978;2023-11-19T13:56:39;96474.25;;;11.14;51.53
25350;BME280;13302;48.796;11.978;2023-11-19T13:59:27;96465.16;;;11.14;51.43
25350;BME280;13302;48.796;11.978;2023-11-19T14:02:15;96459.97;;;11.12;51.48
25350;BME280;13302;48.796;11.978;2023-11-19T14:05:02;96446.16;;;11.12;51.54
25350;BME280;13302;48.796;11.978;2023-11-19T14:07:50;96443.38;;;11.12;51.54
25350;BME280;13302;48.796;11.978;2023-11-19T14:10:39;96450.91;;;11.12;51.28
25350;BME280;13302;48.796;11.978;2023-11-19T14:13:27;96454.09;;;11.14;51.15
25350;BME280;13302;48.796;11.978;2023-11-19T14:16:14;96456.50;;;11.15;51.24
25350;BME280;13302;48.796;11.978;2023-11-19T14:19:03;96454.44;;;11.12;51.20
25350;BME280;13302;48.796;11.978;2023-11-19T14:21:50;96455.25;;;11.13;51.40
25350;BME280;13302;48.796;11.978;2023-11-19T14:24:37;96456.50;;;11.15;51.32
25350;BME280;13302;48.796;11.978;2023-11-19T14:27:27;96462.84;;;11.16;51.12
25350;BME280;13302;48.796;11.978;2023-11-19T14:30:14;96449.78;;;11.16;51.37
25350;BME280;13302;48.796;11.978;2023-11-19T14:33:03;96460.13;;;11.19;51.37
25350;BME280;13302;48.796;11.978;2023-11-19T14:35:52;96456.94;;;11.17;51.34
25350;BME280;13302;48.796;11.978;2023-11-19T14:38:39;96456.13;;;11.17;51.53
25350;BME280;13302;48.796;11.978;2023-11-19T14:41:26;96455.31;;;11.16;51.43
25350;BME280;13302;48.796;11.978;2023-11-19T14:44:14;96454.97;;;11.18;51.35
25350;BME280;13302;48.796;11.978;2023-11-19T14:47:01;96454.97;;;11.18;51.22
25350;BME280;13302;48.796;11.978;2023-11-19T14:49:49;96450.66;;;11.20;51.28
25350;BME280;13302;48.796;11.978;2023-11-19T14:52:37;96447.25;;;11.27;51.39
25350;BME280;13302;48.796;11.978;2023-11-19T14:55:24;96432.97;;;11.25;51.18
25350;BME280;13302;48.796;11.978;2023-11-19T14:58:11;96441.66;;;11.23;51.41
25350;BME280;13302;48.796;11.978;2023-11-19T15:01:03;96433.34;;;11.23;51.63